createdAt,value
2018-01-18T00:01:55.241Z,8.63
2018-01-18T00:04:23.351Z,8.10
2018-01-18T00:06:52.196Z,8.30
2018-01-18T00:09:20.322Z,10.53
2018-01-18T00:11:48.432Z,10.70
2018-01-18T00:14:17.326Z,9.13
2018-01-18T00:16:45.429Z,9.10
2018-01-18T00:19:13.536Z,13.13
2018-01-18T00:21:42.424Z,13.07
2018-01-18T00:24:10.549Z,12.77
2018-01-18T00:26:38.670Z,8.40
2018-01-18T00:29:07.545Z,9.73
2018-01-18T00:31:35.641Z,9.40
2018-01-18T00:34:04.018Z,11.00
2018-01-18T00:36:32.129Z,9.70
2018-01-18T00:39:01.027Z,10.20
2018-01-18T00:41:30.013Z,9.90
2018-01-18T00:43:58.140Z,9.20
2018-01-18T00:46:26.322Z,11.87
2018-01-18T00:48:55.221Z,9.90
2018-01-18T00:51:23.281Z,10.43
2018-01-18T00:53:52.181Z,10.27
2018-01-18T00:56:20.384Z,14.83
2018-01-18T00:58:48.523Z,15.10
2018-01-18T01:01:17.607Z,11.10
2018-01-18T01:03:45.764Z,12.47
2018-01-18T01:06:15.521Z,7.60
2018-01-18T01:08:43.710Z,11.33
2018-01-18T01:11:11.884Z,11.70
2018-01-18T01:13:39.979Z,8.17
2018-01-18T01:16:08.105Z,11.23
2018-01-18T01:18:36.228Z,11.10
2018-01-18T01:21:05.134Z,12.70
2018-01-18T01:23:33.258Z,10.93
2018-01-18T01:26:01.370Z,16.40
2018-01-18T01:28:29.481Z,11.87
2018-01-18T01:30:57.598Z,12.43
2018-01-18T01:33:25.707Z,13.83
2018-01-18T01:35:53.885Z,21.67
2018-01-18T01:38:21.983Z,11.57
2018-01-18T01:40:50.319Z,12.07
2018-01-18T01:43:18.412Z,17.13
2018-01-18T01:45:46.530Z,18.50
2018-01-18T01:48:14.668Z,15.10
2018-01-18T01:50:42.803Z,14.23
2018-01-18T01:53:10.933Z,12.53
2018-01-18T01:55:39.791Z,11.77
2018-01-18T01:58:07.946Z,13.73
2018-01-18T02:00:36.065Z,11.63
2018-01-18T02:03:04.205Z,12.90
2018-01-18T02:05:32.365Z,16.87
2018-01-18T02:08:01.313Z,16.37
2018-01-18T02:10:29.469Z,13.50
2018-01-18T02:12:57.666Z,12.60
2018-01-18T02:15:25.836Z,10.97
2018-01-18T02:17:54.362Z,14.00
2018-01-18T02:20:22.437Z,9.60
2018-01-18T02:22:50.831Z,14.97
2018-01-18T02:25:19.036Z,10.90
2018-01-18T02:27:47.182Z,11.87
2018-01-18T02:30:15.354Z,11.80
2018-01-18T02:32:43.515Z,10.97
2018-01-18T02:35:11.719Z,16.40
2018-01-18T02:37:39.860Z,9.80
2018-01-18T02:40:08.013Z,11.20
2018-01-18T02:42:36.117Z,14.73
2018-01-18T02:45:04.230Z,11.33
2018-01-18T02:47:32.568Z,10.70
2018-01-18T02:50:00.855Z,16.97
2018-01-18T02:52:29.727Z,14.67
2018-01-18T02:54:57.817Z,9.20
2018-01-18T02:57:26.717Z,19.07
2018-01-18T02:59:55.583Z,12.87
2018-01-18T03:02:23.746Z,7.63
2018-01-18T03:04:51.885Z,11.93
2018-01-18T03:07:20.985Z,12.43
2018-01-18T03:09:49.127Z,13.83
2018-01-18T03:12:17.228Z,9.70
2018-01-18T03:14:45.345Z,10.30
2018-01-18T03:17:13.676Z,10.27
2018-01-18T03:19:41.763Z,13.03
2018-01-18T03:22:09.864Z,9.20
2018-01-18T03:24:37.967Z,10.93
2018-01-18T03:27:06.078Z,11.40
2018-01-18T03:29:34.434Z,8.03
2018-01-18T03:32:02.532Z,13.80
2018-01-18T03:34:30.651Z,15.60
2018-01-18T03:36:58.988Z,11.97
2018-01-18T03:39:27.163Z,8.97
2018-01-18T03:41:55.356Z,8.60
2018-01-18T03:44:23.562Z,12.97
2018-01-18T03:46:51.744Z,15.30
2018-01-18T03:49:19.856Z,8.87
2018-01-18T03:51:48.402Z,10.07
2018-01-18T03:54:16.556Z,8.30
2018-01-18T03:56:44.665Z,12.57
2018-01-18T03:59:12.866Z,13.17
2018-01-18T04:01:41.354Z,11.50
2018-01-18T04:04:09.477Z,7.50
2018-01-18T04:06:38.381Z,11.40
2018-01-18T04:09:07.250Z,15.13
2018-01-18T04:11:35.673Z,12.20
2018-01-18T04:14:03.881Z,10.80
2018-01-18T04:16:32.045Z,10.10
2018-01-18T04:19:00.126Z,11.03
2018-01-18T04:21:28.220Z,10.47
2018-01-18T04:23:56.354Z,11.80
2018-01-18T04:26:24.441Z,7.47
2018-01-18T04:28:52.552Z,12.50
2018-01-18T04:31:20.668Z,15.17
2018-01-18T04:33:48.802Z,11.50
2018-01-18T04:36:16.961Z,12.43
2018-01-18T04:38:45.106Z,12.00
2018-01-18T04:41:14.772Z,15.00
2018-01-18T04:43:42.867Z,8.93
2018-01-18T04:46:10.981Z,10.23
2018-01-18T04:48:39.077Z,13.10
2018-01-18T04:51:07.966Z,10.73
2018-01-18T04:53:36.072Z,11.93
2018-01-18T04:56:04.169Z,13.50
2018-01-18T04:58:32.327Z,10.93
2018-01-18T05:01:00.424Z,12.90
2018-01-18T05:03:29.348Z,10.43
2018-01-18T05:05:57.460Z,15.13
2018-01-18T05:08:25.577Z,13.80
2018-01-18T05:11:01.175Z,11.50
2018-01-18T05:13:29.302Z,15.30
2018-01-18T05:15:57.482Z,13.80
2018-01-18T05:18:25.999Z,11.60
2018-01-18T05:20:54.155Z,11.03
2018-01-18T05:23:22.334Z,11.57
2018-01-18T05:25:50.468Z,12.60
2018-01-18T05:28:19.394Z,11.70
2018-01-18T05:30:47.599Z,12.10
2018-01-18T05:33:15.834Z,17.43
2018-01-18T05:35:46.131Z,9.10
2018-01-18T05:43:16.107Z,14.67
2018-01-18T05:45:44.346Z,18.07
2018-01-18T05:48:25.403Z,14.20
2018-01-18T05:50:53.801Z,13.20
2018-01-18T05:53:21.945Z,13.33
2018-01-18T05:58:52.070Z,16.80
2018-01-18T06:01:20.222Z,14.00
2018-01-18T06:03:50.441Z,18.70
2018-01-18T06:06:18.554Z,13.97
2018-01-18T06:08:46.681Z,13.13
2018-01-18T06:11:14.859Z,21.23
2018-01-18T06:13:43.021Z,14.00
2018-01-18T06:16:11.151Z,17.97
2018-01-18T06:18:39.274Z,14.80
2018-01-18T06:21:09.381Z,13.67
2018-01-18T06:23:37.537Z,18.90
2018-01-18T06:26:05.685Z,17.67
2018-01-18T06:28:33.792Z,13.17
2018-01-18T06:31:01.916Z,15.93
2018-01-18T06:33:30.094Z,11.87
2018-01-18T06:35:58.981Z,17.03
2018-01-18T06:38:27.183Z,19.73
2018-01-18T06:40:55.377Z,21.70
2018-01-18T06:43:23.506Z,24.10
2018-01-18T06:45:51.668Z,12.67
2018-01-18T06:48:19.861Z,11.90
2018-01-18T06:50:47.996Z,14.60
2018-01-18T06:53:16.136Z,14.00
2018-01-18T06:55:44.288Z,16.87
2018-01-18T06:58:12.425Z,14.83
2018-01-18T07:00:40.567Z,14.37
2018-01-18T07:03:08.768Z,14.07
2018-01-18T07:05:36.912Z,15.93
2018-01-18T07:08:05.833Z,14.80
2018-01-18T07:10:33.961Z,10.07
2018-01-18T07:13:02.086Z,14.50
2018-01-18T07:15:30.208Z,12.77
2018-01-18T07:17:58.331Z,16.63
2018-01-18T07:20:26.533Z,16.27
2018-01-18T07:22:54.660Z,11.93
2018-01-18T07:25:22.785Z,15.60
2018-01-18T07:27:51.706Z,13.50
2018-01-18T07:30:19.841Z,13.43
2018-01-18T07:32:48.062Z,16.73
2018-01-18T07:35:16.137Z,14.90
2018-01-18T07:37:44.434Z,15.23
2018-01-18T07:40:12.620Z,14.40
2018-01-18T07:42:41.081Z,13.93
2018-01-18T07:45:09.427Z,12.33
2018-01-18T07:47:37.512Z,10.53
2018-01-18T07:50:05.708Z,10.93
2018-01-18T07:52:33.849Z,16.40
2018-01-18T07:55:04.133Z,13.13
2018-01-18T07:57:32.902Z,11.90
2018-01-18T08:00:02.463Z,12.70
2018-01-18T08:02:30.640Z,15.37
2018-01-18T08:04:58.855Z,19.80
2018-01-18T08:07:27.003Z,14.70
2018-01-18T08:09:55.161Z,13.17
2018-01-18T08:12:23.323Z,17.20
2018-01-18T08:14:51.454Z,10.10
2018-01-18T08:17:19.664Z,12.30
2018-01-18T08:19:47.790Z,12.37
2018-01-18T08:22:16.113Z,10.57
2018-01-18T08:24:45.232Z,13.77
2018-01-18T08:27:14.472Z,12.60
2018-01-18T08:29:42.854Z,14.40
2018-01-18T08:32:11.012Z,8.90
2018-01-18T08:34:39.149Z,10.30
2018-01-18T08:37:07.339Z,7.00
2018-01-18T08:39:35.426Z,7.87
2018-01-18T08:42:03.541Z,5.23
2018-01-18T08:44:31.667Z,9.07
2018-01-18T08:46:59.910Z,5.77
2018-01-18T08:49:28.818Z,5.00
2018-01-18T08:51:56.967Z,6.40
2018-01-18T08:54:25.165Z,5.53
2018-01-18T08:56:53.364Z,7.27
2018-01-18T08:59:21.537Z,4.27
2018-01-18T09:01:49.688Z,4.30
2018-01-18T09:04:17.852Z,3.67
2018-01-18T09:06:45.989Z,3.40
2018-01-18T09:09:14.210Z,3.20
2018-01-18T09:11:42.758Z,4.20
2018-01-18T09:14:11.091Z,3.90
2018-01-18T09:16:39.224Z,5.73
2018-01-18T09:19:07.356Z,4.30
2018-01-18T09:21:35.505Z,4.57
2018-01-18T09:24:03.629Z,5.00
2018-01-18T09:26:31.818Z,3.90
2018-01-18T09:29:00.034Z,3.30
2018-01-18T09:31:28.251Z,3.70
2018-01-18T09:33:56.466Z,4.00
2018-01-18T09:36:25.469Z,3.37
2018-01-18T09:38:53.627Z,1.90
2018-01-18T09:41:21.870Z,4.23
2018-01-18T09:43:50.059Z,2.80
2018-01-18T09:46:18.433Z,3.20
2018-01-18T09:48:46.639Z,1.40
2018-01-18T09:51:14.961Z,1.40
2018-01-18T09:53:43.254Z,3.13
2018-01-18T09:56:25.649Z,2.40
2018-01-18T09:58:53.873Z,1.07
2018-01-18T10:01:22.881Z,1.40
2018-01-18T10:03:51.070Z,1.60
2018-01-18T10:06:19.306Z,2.83
2018-01-18T10:08:47.545Z,2.40
2018-01-18T10:11:15.869Z,1.13
2018-01-18T10:13:43.994Z,1.80
2018-01-18T10:16:12.393Z,0.90
2018-01-18T10:18:40.584Z,1.20
2018-01-18T10:21:08.852Z,1.20
2018-01-18T10:23:37.001Z,1.30
2018-01-18T10:26:05.173Z,1.30
2018-01-18T10:28:33.374Z,1.67
2018-01-18T10:31:01.638Z,0.70
2018-01-18T10:33:29.893Z,0.90
2018-01-18T10:35:58.112Z,0.80
2018-01-18T10:38:27.085Z,1.27
2018-01-18T10:40:55.345Z,2.23
2018-01-18T10:43:23.670Z,4.97
2018-01-18T10:45:51.809Z,2.77
2018-01-18T10:48:20.387Z,2.07
2018-01-18T10:50:48.682Z,1.83
2018-01-18T10:53:16.884Z,1.97
2018-01-18T10:55:45.017Z,1.90
2018-01-18T10:58:13.929Z,1.20
2018-01-18T11:00:42.798Z,1.10
2018-01-18T11:03:10.957Z,1.17
2018-01-18T11:05:39.176Z,3.90
2018-01-18T11:08:07.403Z,2.83
2018-01-18T11:10:35.497Z,2.77
2018-01-18T11:13:04.686Z,6.60
2018-01-18T11:15:33.633Z,5.47
2018-01-18T11:18:01.825Z,3.40
2018-01-18T11:20:29.937Z,5.20
2018-01-18T11:22:58.096Z,6.13
2018-01-18T11:25:26.374Z,5.07
2018-01-18T11:27:54.830Z,6.67
2018-01-18T11:30:22.986Z,5.90
2018-01-18T11:32:51.084Z,2.77
2018-01-18T11:35:19.290Z,2.30
2018-01-18T11:37:47.464Z,3.53
2018-01-18T11:40:15.627Z,5.03
2018-01-18T11:42:43.773Z,3.90
2018-01-18T11:45:12.787Z,2.17
2018-01-18T11:47:41.299Z,2.50
2018-01-18T11:50:10.275Z,3.23
2018-01-18T11:52:38.484Z,2.87
2018-01-18T11:55:07.988Z,2.10
2018-01-18T11:57:39.059Z,2.20
2018-01-18T12:00:07.198Z,4.90
2018-01-18T12:02:35.494Z,2.60
2018-01-18T12:05:03.758Z,3.50
2018-01-18T12:07:31.983Z,3.03
2018-01-18T12:10:00.130Z,4.57
2018-01-18T12:12:28.297Z,3.43
2018-01-18T12:14:56.532Z,10.00
2018-01-18T12:17:24.785Z,3.43
2018-01-18T12:19:52.886Z,5.47
2018-01-18T12:22:21.895Z,4.07
2018-01-18T12:24:50.027Z,4.80
2018-01-18T12:27:18.235Z,4.17
2018-01-18T12:29:46.344Z,5.00
2018-01-18T12:32:22.930Z,5.77
2018-01-18T12:34:51.105Z,5.60
2018-01-18T12:37:19.290Z,5.87
2018-01-18T12:39:47.421Z,8.30
2018-01-18T12:42:15.603Z,6.00
2018-01-18T12:44:44.536Z,6.77
2018-01-18T12:47:12.713Z,4.97
2018-01-18T12:49:40.941Z,14.47
2018-01-18T12:52:09.114Z,12.90
2018-01-18T12:54:37.345Z,10.67
2018-01-18T12:57:05.450Z,8.80
2018-01-18T12:59:33.573Z,8.03
2018-01-18T13:02:01.669Z,7.97
2018-01-18T13:04:29.881Z,9.73
2018-01-18T13:06:58.200Z,8.70
2018-01-18T13:09:26.446Z,9.53
2018-01-18T13:11:54.654Z,7.67
2018-01-18T13:14:22.817Z,10.67
2018-01-18T13:16:50.913Z,9.80
2018-01-18T13:19:19.793Z,7.60
2018-01-18T13:21:47.969Z,17.07
2018-01-18T13:24:16.092Z,11.90
2018-01-18T13:26:44.298Z,8.80
2018-01-18T13:29:12.418Z,12.70
2018-01-18T13:31:40.562Z,7.50
2018-01-18T13:34:08.765Z,8.97
2018-01-18T13:36:37.417Z,4.50
2018-01-18T13:39:05.545Z,3.80
2018-01-18T13:41:33.811Z,4.60
2018-01-18T13:44:02.167Z,3.50
2018-01-18T13:46:30.287Z,3.40
2018-01-18T13:48:58.470Z,2.97
2018-01-18T13:51:26.667Z,2.60
2018-01-18T13:53:55.880Z,2.33
2018-01-18T13:56:24.006Z,3.00
2018-01-18T13:58:52.958Z,3.50
2018-01-18T14:01:21.173Z,3.60
2018-01-18T14:03:49.293Z,10.13
2018-01-18T14:06:17.465Z,5.70
2018-01-18T14:08:45.695Z,6.20
2018-01-18T14:11:13.906Z,7.73
2018-01-18T14:16:42.590Z,6.13
2018-01-18T14:19:10.774Z,2.17
2018-01-18T14:21:39.132Z,2.50
2018-01-18T14:24:07.308Z,3.97
2018-01-18T14:26:35.410Z,2.20
2018-01-18T14:29:03.596Z,2.90
2018-01-18T14:31:31.813Z,2.43
2018-01-18T14:33:59.943Z,2.13
2018-01-18T14:36:28.335Z,2.07
2018-01-18T14:38:56.566Z,2.20
2018-01-18T14:41:24.793Z,2.53
2018-01-18T14:43:53.014Z,1.87
2018-01-18T14:46:21.185Z,3.70
2018-01-18T14:48:49.523Z,2.80
2018-01-18T14:51:17.749Z,3.10
2018-01-18T14:53:45.893Z,2.70
2018-01-18T14:56:14.770Z,2.80
2018-01-18T14:58:42.886Z,3.03
2018-01-18T15:01:10.997Z,2.93
2018-01-18T15:03:39.177Z,3.07
2018-01-18T15:06:07.634Z,2.73
2018-01-18T15:08:35.727Z,3.67
2018-01-18T15:11:03.927Z,3.70
2018-01-18T15:13:32.098Z,3.30
2018-01-18T15:16:00.286Z,6.37
2018-01-18T15:18:28.486Z,3.43
2018-01-18T15:20:56.718Z,4.67
2018-01-18T15:23:24.845Z,2.60
2018-01-18T15:25:52.990Z,3.47
2018-01-18T15:28:22.275Z,6.33
2018-01-18T15:30:50.381Z,3.83
2018-01-18T15:33:18.547Z,3.57
2018-01-18T15:35:46.615Z,4.00
2018-01-18T15:38:14.881Z,2.97
2018-01-18T15:40:42.977Z,3.70
2018-01-18T15:43:11.150Z,3.53
2018-01-18T15:45:39.352Z,5.10
2018-01-18T15:48:07.490Z,4.70
2018-01-18T15:50:35.676Z,4.60
2018-01-18T15:53:04.095Z,5.00
2018-01-18T15:55:33.025Z,4.10
2018-01-18T15:58:01.128Z,5.87
2018-01-18T16:00:29.256Z,5.57
2018-01-18T16:02:57.435Z,8.20
2018-01-18T16:05:25.545Z,5.87
2018-01-18T16:07:53.729Z,5.93
2018-01-18T16:10:22.006Z,6.30
2018-01-18T16:12:50.307Z,6.00
2018-01-18T16:15:18.495Z,5.50
2018-01-18T16:17:46.887Z,6.40
2018-01-18T16:20:15.058Z,8.37
2018-01-18T16:22:43.267Z,6.70
2018-01-18T16:25:11.534Z,8.40
2018-01-18T16:27:39.895Z,6.17
2018-01-18T16:30:26.759Z,7.37
2018-01-18T16:32:55.739Z,7.10
2018-01-18T16:35:23.922Z,9.40
2018-01-18T16:37:52.113Z,8.53
2018-01-18T16:40:24.835Z,7.37
2018-01-18T16:42:53.046Z,8.53
2018-01-18T16:45:22.251Z,8.63
2018-01-18T16:47:50.361Z,9.27
2018-01-18T16:50:18.649Z,8.60
2018-01-18T16:52:47.777Z,8.53
2018-01-18T16:55:16.019Z,8.23
2018-01-18T16:57:48.866Z,8.60
2018-01-18T17:00:17.274Z,9.87
2018-01-18T17:02:48.645Z,8.43
2018-01-18T17:05:17.853Z,9.30
2018-01-18T17:07:46.849Z,8.10
2018-01-18T17:10:15.154Z,9.17
2018-01-18T17:12:43.290Z,8.97
2018-01-18T17:15:11.959Z,10.10
2018-01-18T17:17:40.154Z,10.73
2018-01-18T17:20:11.283Z,9.80
2018-01-18T17:22:39.407Z,9.00
2018-01-18T17:25:08.057Z,10.47
2018-01-18T17:27:36.355Z,8.63
2018-01-18T17:30:04.624Z,9.87
2018-01-18T17:32:32.781Z,9.93
2018-01-18T17:35:00.998Z,11.13
2018-01-18T17:37:29.231Z,10.50
2018-01-18T17:40:05.669Z,11.87
2018-01-18T17:42:33.893Z,11.33
2018-01-18T17:45:02.072Z,12.83
2018-01-18T17:47:30.446Z,12.07
2018-01-18T17:49:58.668Z,10.60
2018-01-18T17:52:26.864Z,11.63
2018-01-18T17:54:55.178Z,23.93
2018-01-18T17:57:23.686Z,15.23
2018-01-18T17:59:51.923Z,13.03
2018-01-18T18:02:20.059Z,16.17
2018-01-18T18:04:48.239Z,11.33
2018-01-18T18:07:16.532Z,15.33
2018-01-18T18:09:44.713Z,13.50
2018-01-18T18:12:12.938Z,14.30
2018-01-18T18:14:41.126Z,15.90
2018-01-18T18:17:09.341Z,13.60
2018-01-18T18:19:37.527Z,17.00
2018-01-18T18:22:06.322Z,16.20
2018-01-18T18:24:34.750Z,15.10
2018-01-18T18:27:02.941Z,17.00
2018-01-18T18:29:31.192Z,16.90
2018-01-18T18:32:03.853Z,17.33
2018-01-18T18:34:33.029Z,17.60
2018-01-18T18:37:01.168Z,19.10
2018-01-18T18:39:29.412Z,20.27
2018-01-18T18:41:57.763Z,18.17
2018-01-18T18:44:29.072Z,20.63
2018-01-18T18:46:57.257Z,18.73
2018-01-18T18:49:25.484Z,18.40
2018-01-18T18:51:54.777Z,17.13
2018-01-18T18:54:28.123Z,17.63
2018-01-18T18:56:57.815Z,19.50
2018-01-18T18:59:26.090Z,17.10
2018-01-18T19:01:54.380Z,17.13
2018-01-18T19:04:22.548Z,16.80
2018-01-18T19:06:50.812Z,14.77
2018-01-18T19:09:19.058Z,16.67
2018-01-18T19:11:47.394Z,15.00
2018-01-18T19:14:15.649Z,13.67
2018-01-18T19:16:44.656Z,16.10
2018-01-18T19:19:12.851Z,17.43
2018-01-18T19:21:41.801Z,13.07
2018-01-18T19:24:10.086Z,13.30
2018-01-18T19:26:38.444Z,11.80
2018-01-18T19:29:06.621Z,16.73
2018-01-18T19:31:41.796Z,15.40
2018-01-18T19:34:09.979Z,14.90
2018-01-18T19:36:42.881Z,12.80
2018-01-18T19:39:11.134Z,16.80
2018-01-18T19:41:39.325Z,12.10
2018-01-18T19:44:07.467Z,11.47
2018-01-18T19:46:35.659Z,9.30
2018-01-18T19:49:03.790Z,10.33
2018-01-18T19:51:31.988Z,6.57
2018-01-18T19:54:00.165Z,8.10
2018-01-18T19:56:29.362Z,8.00
2018-01-18T19:58:57.621Z,8.03
2018-01-18T20:01:25.746Z,8.00
2018-01-18T20:03:53.914Z,8.13
2018-01-18T20:06:22.844Z,7.57
2018-01-18T20:08:51.842Z,9.57
2018-01-18T20:11:20.350Z,6.37
2018-01-18T20:14:11.262Z,7.70
2018-01-18T20:16:42.423Z,7.63
2018-01-18T20:19:11.389Z,8.70
2018-01-18T20:21:39.639Z,7.53
2018-01-18T20:24:10.264Z,9.50
2018-01-18T20:26:38.628Z,9.80
2018-01-18T20:29:07.643Z,8.30
2018-01-18T20:31:36.288Z,7.00
2018-01-18T20:34:04.444Z,9.50
2018-01-18T20:36:32.787Z,7.57
2018-01-18T20:39:09.533Z,11.33
2018-01-18T20:41:39.611Z,10.00
2018-01-18T21:41:06.661Z,8.83
2018-01-18T21:43:39.135Z,7.47
2018-01-18T21:46:09.892Z,9.83
2018-01-18T21:48:38.091Z,8.67
2018-01-18T21:51:06.297Z,7.83
2018-01-18T21:53:35.512Z,8.60
2018-01-18T21:56:03.674Z,7.80
2018-01-18T21:58:31.779Z,8.40
2018-01-18T22:00:59.864Z,7.87
2018-01-18T22:03:28.076Z,7.00
2018-01-18T22:05:56.193Z,7.30
2018-01-18T22:08:24.267Z,6.90
2018-01-18T22:10:54.333Z,7.37
2018-01-18T22:13:22.473Z,8.50
2018-01-18T22:15:51.357Z,9.30
2018-01-18T22:18:19.650Z,7.63
2018-01-18T22:20:47.745Z,7.37
2018-01-18T22:23:16.843Z,9.17
2018-01-18T22:25:44.929Z,7.67
2018-01-18T22:28:13.034Z,8.50
2018-01-18T22:30:50.770Z,9.07
2018-01-18T22:33:18.881Z,7.97
2018-01-18T22:35:46.985Z,7.40
2018-01-18T22:38:15.076Z,9.60
2018-01-18T22:40:44.817Z,10.13
2018-01-18T22:43:13.728Z,11.80
2018-01-18T22:45:41.809Z,13.90
2018-01-18T22:48:09.911Z,9.87
2018-01-18T22:50:38.021Z,10.50
2018-01-18T22:53:06.112Z,10.77
2018-01-18T22:55:34.284Z,10.33
2018-01-18T22:58:02.387Z,11.33
2018-01-18T23:00:30.524Z,11.57
2018-01-18T23:02:58.621Z,13.10
2018-01-18T23:05:26.738Z,9.80
2018-01-18T23:07:54.903Z,11.63
2018-01-18T23:10:23.010Z,10.60
2018-01-18T23:12:51.125Z,17.80
2018-01-18T23:15:20.000Z,20.10
2018-01-18T23:17:49.457Z,15.90
2018-01-18T23:20:17.565Z,14.37
2018-01-18T23:22:45.680Z,13.53
2018-01-18T23:25:13.789Z,13.57
2018-01-18T23:27:42.684Z,12.30
2018-01-18T23:30:10.789Z,11.80
2018-01-18T23:32:38.922Z,10.20
2018-01-18T23:35:07.067Z,12.00
2018-01-18T23:37:40.188Z,12.90
2018-01-18T23:40:08.288Z,11.80
2018-01-18T23:42:36.385Z,9.27
2018-01-18T23:45:04.506Z,9.53
2018-01-18T23:47:32.645Z,11.40
2018-01-18T23:50:00.753Z,7.90
2018-01-18T23:52:28.857Z,8.77
2018-01-18T23:54:57.717Z,10.20
2018-01-18T23:57:26.741Z,8.60
2018-01-18T23:59:55.222Z,7.50
